Time Latitude Longitude Accuracy (66% radius in meters) Altitude (meters) Speed (km/hour) Bearing (degrees) Battery (%) GPS flag
07:16:32 54.460728 53.534414 0 0 0 0 1 delete
07:15:46 54.460750 53.534375 0 0 0 0 1 delete
07:15:44 54.460774 53.534419 0 0 0 0 1 delete
07:15:35 54.460794 53.534469 0 0 0 0 1 delete
07:15:30 54.460766 53.534463 0 0 0 0 1 delete
07:15:27 54.460737 53.534451 0 0 0 0 1 delete
07:15:09 54.460712 53.534365 0 0 0 0 1 delete
07:15:07 54.460737 53.534397 0 0 0 0 1 delete
07:15:05 54.460735 53.534449 0 0 0 0 1 delete
07:15:03 54.460733 53.534518 0 0 0 0 1 delete
07:15:01 54.460745 53.534592 0 0 0 0 1 delete
07:14:57 54.460781 53.534579 0 0 0 0 1 delete
07:14:52 54.460756 53.534596 0 0 0 0 1 delete
07:14:46 54.460730 53.534576 0 0 0 0 1 delete
07:14:44 54.460746 53.534536 0 0 0 0 1 delete
07:14:42 54.460759 53.534495 0 0 0 0 1 delete
07:14:39 54.460776 53.534442 0 0 0 0 1 delete
07:14:37 54.460790 53.534397 0 0 0 0 1 delete
07:14:35 54.460811 53.534347 0 0 0 0 1 delete
07:14:27 54.460814 53.534300 0 0 0 0 1 delete
07:14:14 54.460788 53.534339 0 0 0 0 1 delete
07:14:09 54.460819 53.534349 0 0 0 0 1 delete
07:14:05 54.460842 53.534385 0 0 0 0 1 delete
07:14:02 54.460853 53.534432 0 0 0 0 1 delete
07:13:59 54.460861 53.534477 0 0 0 0 1 delete
07:13:56 54.460867 53.534528 0 0 0 0 1 delete
07:13:51 54.460876 53.534575 0 0 0 0 1 delete
07:13:47 54.460879 53.534626 0 0 0 0 1 delete
07:13:44 54.460887 53.534680 0 0 0 0 1 delete
07:13:41 54.460899 53.534727 0 0 0 0 1 delete
07:13:38 54.460920 53.534772 0 0 0 0 1 delete
07:13:35 54.460946 53.534814 0 0 0 0 1 delete
07:13:32 54.460969 53.534861 0 0 0 0 1 delete
07:13:28 54.460966 53.534924 0 0 0 0 1 delete
07:13:25 54.460954 53.534968 0 0 0 0 1 delete
07:13:22 54.460946 53.535019 0 0 0 0 1 delete
07:13:19 54.460939 53.535075 0 0 0 0 1 delete
07:13:16 54.460938 53.535132 0 0 0 0 1 delete
07:13:13 54.460942 53.535193 0 0 0 0 1 delete
07:13:10 54.460947 53.535253 0 0 0 0 1 delete
07:13:07 54.460951 53.535316 0 0 0 0 1 delete
07:13:04 54.460957 53.535377 0 0 0 0 1 delete
07:13:01 54.460959 53.535432 0 0 0 0 1 delete
07:12:58 54.460960 53.535493 0 0 0 0 1 delete
07:12:55 54.460956 53.535553 0 0 0 0 1 delete
07:12:52 54.460945 53.535603 0 0 0 0 1 delete
07:12:49 54.460940 53.535653 0 0 0 0 1 delete
07:12:46 54.460936 53.535708 0 0 0 0 1 delete
07:12:43 54.460933 53.535764 0 0 0 0 1 delete
07:12:40 54.460930 53.535816 0 0 0 0 1 delete